Time;durP1;ratioP1;P1;durP2;ratioP2;P2;SDS_P1;SDS_P2;PMS_P1;PMS_P2;Temp;Humidity;BMP_temperature;BMP_pressure;BME280_temperature;BME280_humidity;BME280_pressure;Samples;Min_cycle;Max_cycle;Signal;HPM_P1;HPM_P2
2023/07/03 00:02:10;;;;;;;19.48;11.15;;;;;;;18.79;90.19;94238.13;5119958;27;20660;-73
2023/07/03 00:04:38;;;;;;;17.45;11.88;;;;;;;18.82;89.98;94231.88;5113325;27;20632;-73
2023/07/03 00:07:06;;;;;;;17.98;11.77;;;;;;;18.71;90.23;94233.81;5116696;27;20201;-73
2023/07/03 00:09:33;;;;;;;17.95;12.02;;;;;;;18.72;90.44;94227.16;5125346;27;20309;-72
2023/07/03 00:12:00;;;;;;;15.77;12.27;;;;;;;18.70;90.38;94232.22;5105979;27;20550;-72
2023/07/03 00:14:26;;;;;;;20.00;13.02;;;;;;;18.70;90.38;94234.97;5124441;27;20208;-73
2023/07/03 00:16:56;;;;;;;18.90;12.90;;;;;;;18.69;90.55;94233.41;5114573;27;20205;-72
2023/07/03 00:19:26;;;;;;;15.02;9.75;;;;;;;18.72;90.63;94238.13;5113977;27;20321;-73
2023/07/03 00:21:53;;;;;;;20.20;12.32;;;;;;;18.68;90.41;94231.84;5116711;27;20350;-73
2023/07/03 00:24:20;;;;;;;17.80;11.80;;;;;;;18.67;90.58;94235.75;5119591;27;20205;-73
2023/07/03 00:26:47;;;;;;;16.35;11.60;;;;;;;18.60;91.21;94236.50;5104025;27;20696;-73
2023/07/03 00:29:14;;;;;;;20.63;13.93;;;;;;;18.62;91.34;94239.66;5112556;27;20243;-73
2023/07/03 00:31:40;;;;;;;18.27;11.57;;;;;;;18.63;91.36;94241.22;5105474;28;20208;-72
2023/07/03 00:34:09;;;;;;;16.75;11.85;;;;;;;18.66;90.66;94242.41;5119137;27;20284;-73
2023/07/03 00:36:35;;;;;;;15.38;10.32;;;;;;;18.68;91.25;94234.56;5118833;27;20202;-73
2023/07/03 00:39:02;;;;;;;16.25;11.23;;;;;;;18.73;91.12;94245.16;5109511;27;20205;-72
2023/07/03 00:41:29;;;;;;;18.77;13.05;;;;;;;18.62;91.60;94241.59;5125434;27;20258;-73
2023/07/03 00:43:56;;;;;;;19.15;12.15;;;;;;;18.65;91.63;94254.56;5119587;27;20722;-73
2023/07/03 00:46:22;;;;;;;18.73;12.60;;;;;;;18.65;91.65;94249.06;5116028;27;20265;-73
2023/07/03 00:48:49;;;;;;;17.45;11.95;;;;;;;18.63;91.92;94243.19;5116269;27;20575;-72
2023/07/03 00:51:18;;;;;;;14.68;10.82;;;;;;;18.66;91.97;94250.63;5108820;27;20212;-73
2023/07/03 00:53:45;;;;;;;18.98;12.05;;;;;;;18.63;92.17;94252.19;5122166;27;20224;-73
2023/07/03 00:56:13;;;;;;;16.38;11.65;;;;;;;18.63;91.96;94251.41;5109499;27;20722;-73
2023/07/03 00:58:40;;;;;;;20.00;12.30;;;;;;;18.66;92.26;94253.38;5120078;27;20288;-71
2023/07/03 01:01:15;;;;;;;17.90;12.15;;;;;;;18.67;92.11;94260.44;5124539;27;20308;-73
2023/07/03 01:03:46;;;;;;;17.40;8.45;;;;;;;18.76;91.63;94244.38;5107192;28;20197;-72
2023/07/03 01:06:20;;;;;;;12.70;8.65;;;;;;;18.80;91.22;94256.16;5110528;27;20272;-72
2023/07/03 01:08:49;;;;;;;18.13;12.73;;;;;;;18.75;91.76;94248.31;5124212;27;20196;-73
2023/07/03 01:11:17;;;;;;;19.13;12.68;;;;;;;18.70;91.69;94252.22;5110936;28;20262;-73
2023/07/03 01:13:47;;;;;;;18.45;12.05;;;;;;;18.64;92.62;94253.78;5118228;27;20197;-73
2023/07/03 01:16:14;;;;;;;20.38;12.70;;;;;;;18.66;92.43;94256.91;5124357;27;20228;-74
2023/07/03 01:18:43;;;;;;;19.13;13.18;;;;;;;18.55;92.88;94260.78;5116779;27;20201;-73
2023/07/03 01:21:16;;;;;;;21.02;13.18;;;;;;;18.58;93.10;94255.34;5103244;27;20889;-73
2023/07/03 01:23:50;;;;;;;19.38;12.02;;;;;;;18.56;92.89;94256.84;5110796;27;20205;-74
2023/07/03 01:26:20;;;;;;;20.73;12.77;;;;;;;18.52;93.06;94256.84;5110671;28;20697;-73
2023/07/03 01:28:52;;;;;;;16.58;11.43;;;;;;;18.45;93.64;94263.06;5115996;27;20655;-73
2023/07/03 01:31:21;;;;;;;20.77;13.85;;;;;;;18.46;93.57;94259.16;5106378;27;20186;-71
2023/07/03 01:33:48;;;;;;;16.13;11.90;;;;;;;18.43;93.88;94254.47;5114336;27;20204;-72
2023/07/03 01:36:17;;;;;;;19.42;13.05;;;;;;;18.51;93.54;94262.72;5118895;27;20205;-73
2023/07/03 01:38:46;;;;;;;21.90;14.05;;;;;;;18.38;94.12;94257.56;5108932;27;20257;-73
2023/07/03 01:41:15;;;;;;;21.58;14.57;;;;;;;18.35;94.43;94252.84;5118029;27;20546;-73
2023/07/03 01:43:45;;;;;;;22.08;13.63;;;;;;;18.38;94.29;94249.34;5116633;27;20291;-73
2023/07/03 01:46:12;;;;;;;18.83;12.20;;;;;;;18.37;94.57;94250.50;5107406;27;20759;-73
2023/07/03 01:48:39;;;;;;;19.98;12.85;;;;;;;18.39;94.40;94253.66;5123605;27;20189;-73
2023/07/03 01:51:10;;;;;;;19.00;11.98;;;;;;;18.34;94.55;94256.75;5121096;27;20209;-73
2023/07/03 01:53:44;;;;;;;20.30;12.80;;;;;;;18.28;94.65;94252.84;5121934;27;20243;-73
2023/07/03 01:56:19;;;;;;;20.00;13.30;;;;;;;18.24;95.29;94249.28;5110800;27;20200;-73
2023/07/03 01:58:49;;;;;;;21.98;11.25;;;;;;;18.33;94.98;94255.19;5120135;27;20639;-73
2023/07/03 02:01:24;;;;;;;21.85;14.07;;;;;;;18.34;94.81;94256.75;5123759;27;20717;-73
2023/07/03 02:03:55;;;;;;;16.33;10.95;;;;;;;18.38;94.36;94256.78;5106437;27;20528;-72
2023/07/03 02:06:26;;;;;;;21.38;14.60;;;;;;;18.42;93.67;94252.91;5109692;27;20252;-73
2023/07/03 02:08:53;;;;;;;19.58;11.75;;;;;;;18.41;93.91;94267.00;5127553;27;20658;-73
2023/07/03 02:11:22;;;;;;;19.35;11.55;;;;;;;18.45;94.59;94263.06;5110243;28;20236;-73
2023/07/03 02:13:50;;;;;;;19.30;13.52;;;;;;;18.43;94.73;94262.69;5111444;27;20203;-73
2023/07/03 02:16:17;;;;;;;19.05;12.40;;;;;;;18.38;95.09;94263.06;5122439;27;20225;-73
2023/07/03 02:18:46;;;;;;;21.50;13.15;;;;;;;18.37;95.25;94264.22;5127964;27;20349;-72
2023/07/03 02:21:13;;;;;;;20.63;13.55;;;;;;;18.35;95.46;94263.81;5112720;28;20247;-73
2023/07/03 02:23:40;;;;;;;17.65;11.90;;;;;;;18.40;95.53;94266.22;5111699;27;20202;-73
2023/07/03 02:26:07;;;;;;;20.25;13.40;;;;;;;18.36;95.79;94264.59;5117875;27;20614;-73
2023/07/03 02:28:34;;;;;;;17.48;11.40;;;;;;;18.44;95.53;94268.97;5101835;27;20206;-73
2023/07/03 02:31:03;;;;;;;19.88;10.63;;;;;;;18.55;95.07;94274.50;5109943;27;20768;-73
2023/07/03 02:33:29;;;;;;;19.08;10.90;;;;;;;18.65;94.56;94276.50;5118336;27;20196;-72
2023/07/03 02:35:56;;;;;;;12.45;9.40;;;;;;;18.77;93.82;94268.69;5119883;28;20198;-70
2023/07/03 02:38:23;;;;;;;21.73;13.15;;;;;;;18.83;93.72;94280.09;5107294;28;20220;-73
2023/07/03 02:40:50;;;;;;;22.02;13.48;;;;;;;18.83;93.18;94277.34;5106755;28;20567;-73
2023/07/03 02:43:16;;;;;;;18.90;12.38;;;;;;;18.88;93.05;94282.44;5123502;28;20229;-73
2023/07/03 02:45:43;;;;;;;17.20;11.50;;;;;;;18.94;93.18;94283.66;5114364;28;20240;-73
2023/07/03 02:48:13;;;;;;;19.02;11.57;;;;;;;18.94;93.21;94289.13;5112188;28;20622;-72
2023/07/03 02:50:40;;;;;;;19.42;11.82;;;;;;;18.86;93.58;94290.28;5121547;28;20281;-73
2023/07/03 02:53:07;;;;;;;16.85;10.93;;;;;;;18.86;93.59;94293.00;5123333;28;20206;-73
2023/07/03 02:55:34;;;;;;;13.48;7.72;;;;;;;18.94;92.86;94289.13;5109045;28;20277;-73
2023/07/03 02:58:01;;;;;;;17.20;11.65;;;;;;;18.88;93.51;94290.69;5116027;28;20643;-73
2023/07/03 03:00:28;;;;;;;17.15;11.07;;;;;;;18.91;93.44;94289.91;5118892;28;20553;-73
2023/07/03 03:02:55;;;;;;;18.02;13.50;;;;;;;18.93;93.53;94293.06;5108470;28;20202;-73
2023/07/03 03:05:23;;;;;;;19.90;13.35;;;;;;;19.00;93.33;94293.06;5095827;28;20202;-73
2023/07/03 03:07:50;;;;;;;19.55;11.77;;;;;;;19.11;92.80;94299.38;5100797;28;20193;-73
2023/07/03 03:10:17;;;;;;;17.60;11.95;;;;;;;19.15;92.37;94296.63;5106228;28;20198;-73
2023/07/03 03:12:44;;;;;;;19.85;12.20;;;;;;;19.18;92.00;94293.88;5110738;28;20658;-73
2023/07/03 03:15:11;;;;;;;21.38;13.23;;;;;;;19.15;91.90;94294.66;5108891;28;20214;-73
2023/07/03 03:17:37;;;;;;;22.20;12.88;;;;;;;19.11;92.17;94293.88;5099705;28;20209;-73
2023/07/03 03:20:07;;;;;;;21.08;13.63;;;;;;;19.06;92.45;94297.00;5101758;28;20209;-73
2023/07/03 03:22:36;;;;;;;19.33;12.25;;;;;;;19.13;92.23;94297.00;5109160;28;20225;-73
2023/07/03 03:25:03;;;;;;;16.67;11.40;;;;;;;19.12;92.17;94300.94;5108461;28;20266;-73
2023/07/03 03:27:30;;;;;;;20.40;14.60;;;;;;;19.12;91.99;94295.47;5124577;27;20221;-73
2023/07/03 03:29:56;;;;;;;22.08;13.98;;;;;;;19.07;92.55;94298.56;5105202;28;20206;-73
2023/07/03 03:32:23;;;;;;;17.48;12.20;;;;;;;19.02;92.81;94300.91;5121037;27;20265;-71
2023/07/03 03:34:50;;;;;;;22.02;13.10;;;;;;;19.00;92.94;94304.03;5128387;27;20601;-73
2023/07/03 03:37:17;;;;;;;18.63;12.70;;;;;;;19.06;92.85;94302.50;5101940;27;20651;-72
2023/07/03 03:39:46;;;;;;;20.10;13.25;;;;;;;19.13;92.49;94301.72;5110984;27;20210;-73
2023/07/03 03:42:12;;;;;;;21.38;13.13;;;;;;;19.25;92.23;94308.81;5113081;27;20569;-73
2023/07/03 03:44:39;;;;;;;19.92;13.25;;;;;;;19.36;91.72;94295.88;5095750;28;20229;-72
2023/07/03 03:47:06;;;;;;;20.67;12.57;;;;;;;19.43;91.68;94304.09;5112547;28;20712;-73
2023/07/03 03:49:33;;;;;;;15.93;9.07;;;;;;;19.37;91.22;94311.97;5119865;27;20213;-72
2023/07/03 03:52:00;;;;;;;18.45;11.80;;;;;;;19.45;91.06;94310.78;5131249;27;20250;-73
2023/07/03 03:54:27;;;;;;;15.73;10.55;;;;;;;19.37;91.29;94311.97;5119795;27;20198;-72
2023/07/03 03:56:55;;;;;;;18.70;12.02;;;;;;;19.50;90.98;94315.94;5116373;27;20211;-72
2023/07/03 03:59:22;;;;;;;18.67;12.85;;;;;;;19.65;90.37;94316.72;5122628;27;20201;-72
2023/07/03 04:01:49;;;;;;;19.30;12.70;;;;;;;19.75;89.80;94318.66;5112337;28;20282;-74
2023/07/03 04:04:16;;;;;;;19.67;13.07;;;;;;;19.91;89.15;94322.97;5117411;27;20297;-74
2023/07/03 04:06:43;;;;;;;14.32;10.80;;;;;;;19.92;88.95;94313.56;5122435;27;20221;-71
2023/07/03 04:09:11;;;;;;;18.95;10.32;;;;;;;19.87;89.39;94312.75;5124659;27;20227;-72
2023/07/03 04:11:37;;;;;;;19.38;13.55;;;;;;;20.00;89.17;94328.84;5112570;28;20194;-74
2023/07/03 04:14:06;;;;;;;16.52;11.50;;;;;;;20.38;87.82;94333.53;5112327;28;20190;-74
2023/07/03 04:16:33;;;;;;;19.75;12.55;;;;;;;20.46;86.75;94326.03;5101192;28;20247;-74
2023/07/03 04:19:00;;;;;;;16.65;11.60;;;;;;;20.31;87.19;94325.28;5117408;27;20513;-74
2023/07/03 04:21:26;;;;;;;20.52;13.73;;;;;;;20.37;87.22;94337.44;5120709;27;20609;-75
2023/07/03 04:23:53;;;;;;;16.65;11.40;;;;;;;20.46;86.92;94337.84;5093860;27;20717;-72
2023/07/03 04:26:22;;;;;;;15.27;10.25;;;;;;;20.15;88.35;94338.66;5102538;28;20225;-74
2023/07/03 04:28:49;;;;;;;19.02;12.63;;;;;;;20.43;87.42;94338.63;5125514;27;20295;-74
2023/07/03 04:31:17;;;;;;;17.80;12.55;;;;;;;21.10;85.32;94343.09;5123257;27;20601;-74
2023/07/03 04:33:45;;;;;;;18.40;11.68;;;;;;;22.81;78.72;94336.22;5099365;27;20271;-75
2023/07/03 04:36:12;;;;;;;17.35;11.45;;;;;;;22.82;75.98;94329.50;5112030;28;20254;-74
2023/07/03 04:38:41;;;;;;;16.80;11.32;;;;;;;22.85;76.51;94342.44;5104826;28;20290;-73
2023/07/03 04:41:10;;;;;;;16.00;12.07;;;;;;;22.53;77.27;94338.06;5104253;28;20205;-73
2023/07/03 04:43:44;;;;;;;18.40;13.77;;;;;;;21.86;79.45;94344.19;5104535;28;20222;-74
2023/07/03 04:46:13;;;;;;;19.10;14.10;;;;;;;20.90;82.64;94351.06;5108263;27;20193;-74
2023/07/03 04:48:41;;;;;;;18.75;14.57;;;;;;;20.93;83.18;94350.25;5116103;27;20752;-74
2023/07/03 04:51:08;;;;;;;18.27;14.68;;;;;;;20.82;84.49;94348.72;5105654;28;20201;-74
2023/07/03 04:53:40;;;;;;;17.88;13.93;;;;;;;20.67;84.18;94352.69;5119349;27;20201;-72
2023/07/03 04:56:08;;;;;;;19.90;14.25;;;;;;;20.81;83.14;94353.44;5100044;27;20206;-74
2023/07/03 04:58:35;;;;;;;17.95;11.30;;;;;;;21.83;80.46;94356.81;5107284;28;20198;-74
2023/07/03 05:01:02;;;;;;;17.38;11.25;;;;;;;23.19;74.51;94345.97;5094435;28;20206;-74
2023/07/03 05:03:28;;;;;;;16.70;13.35;;;;;;;24.16;71.44;94339.81;5100829;28;20205;-74
2023/07/03 05:05:56;;;;;;;13.15;9.90;;;;;;;24.48;68.59;94351.13;5110869;28;20560;-73
2023/07/03 05:08:24;;;;;;;15.25;9.95;;;;;;;25.06;66.10;94346.06;5110773;28;20716;-75
2023/07/03 05:10:52;;;;;;;13.18;10.00;;;;;;;26.06;62.97;94356.53;5120968;27;20245;-74
2023/07/03 05:13:18;;;;;;;13.98;10.27;;;;;;;26.54;61.30;94352.19;5089992;28;20230;-75
2023/07/03 05:15:45;;;;;;;14.93;11.45;;;;;;;26.35;61.41;94351.09;5100789;28;20658;-74
2023/07/03 05:18:12;;;;;;;14.20;11.95;;;;;;;27.40;59.15;94348.63;5089988;28;20229;-75
2023/07/03 05:20:39;;;;;;;13.93;11.68;;;;;;;26.70;60.74;94348.59;5090091;28;20202;-74
2023/07/03 05:23:07;;;;;;;15.60;11.93;;;;;;;27.93;57.51;94351.78;5089954;28;20754;-75
2023/07/03 05:25:33;;;;;;;14.80;10.80;;;;;;;27.85;56.79;94348.47;5088738;28;20738;-75
2023/07/03 05:28:00;;;;;;;13.63;10.68;;;;;;;28.73;55.20;94349.53;5089829;28;20275;-75
2023/07/03 05:30:27;;;;;;;12.32;11.02;;;;;;;28.21;55.21;94353.69;5094279;28;20255;-75
2023/07/03 05:32:54;;;;;;;12.98;10.75;;;;;;;27.14;58.55;94356.13;5114803;27;20198;-75
2023/07/03 05:35:21;;;;;;;14.55;11.50;;;;;;;28.88;54.35;94361.78;5105963;28;20614;-75
2023/07/03 05:37:47;;;;;;;12.65;10.50;;;;;;;29.09;52.99;94353.91;5090008;28;20206;-74
2023/07/03 05:40:16;;;;;;;13.00;11.00;;;;;;;28.49;54.45;94373.47;5089607;28;20296;-72
2023/07/03 05:42:43;;;;;;;12.10;10.68;;;;;;;29.10;53.68;94361.81;5101722;28;20258;-72
2023/07/03 05:45:10;;;;;;;11.48;10.32;;;;;;;29.91;51.21;94368.38;5110443;28;20213;-73
2023/07/03 05:47:37;;;;;;;12.68;11.23;;;;;;;29.36;52.34;94368.06;5097139;28;20234;-73
2023/07/03 05:50:05;;;;;;;14.63;10.98;;;;;;;29.08;52.70;94371.88;5097287;28;20198;-74
2023/07/03 05:52:33;;;;;;;12.80;10.52;;;;;;;28.73;54.00;94383.00;5089453;28;20728;-74
2023/07/03 05:55:00;;;;;;;13.25;11.05;;;;;;;29.08;52.30;94374.66;5103310;28;20202;-75
2023/07/03 05:57:28;;;;;;;12.68;9.85;;;;;;;29.99;51.09;94380.84;5089368;28;20202;-75
2023/07/03 05:59:55;;;;;;;12.82;11.05;;;;;;;30.82;49.26;94374.25;5107318;27;20200;-75
2023/07/03 06:02:22;;;;;;;14.45;10.73;;;;;;;29.76;50.28;94381.34;5102362;27;20603;-74
2023/07/03 06:04:49;;;;;;;13.63;11.05;;;;;;;28.41;53.80;94374.97;5109238;28;20652;-74
2023/07/03 06:07:15;;;;;;;13.48;10.95;;;;;;;26.82;57.45;94384.78;5109087;28;20274;-74
2023/07/03 06:09:42;;;;;;;14.27;11.57;;;;;;;28.15;55.59;94372.19;5110007;28;20297;-75
2023/07/03 06:12:09;;;;;;;15.02;11.52;;;;;;;29.33;52.45;94368.94;5109845;28;20209;-74
2023/07/03 06:14:37;;;;;;;12.48;10.95;;;;;;;28.86;54.30;94369.81;5109824;28;20291;-74
2023/07/03 06:17:05;;;;;;;12.20;9.95;;;;;;;29.43;51.59;94370.59;5109305;28;20279;-71
2023/07/03 06:19:31;;;;;;;11.18;9.38;;;;;;;27.35;57.27;94371.41;5109566;28;20687;-69
2023/07/03 06:21:58;;;;;;;14.20;11.13;;;;;;;27.33;58.12;94368.31;5121426;27;20227;-72
2023/07/03 06:24:26;;;;;;;13.32;11.32;;;;;;;27.29;58.06;94378.75;5089423;28;20210;-69
2023/07/03 06:26:53;;;;;;;12.52;10.23;;;;;;;27.85;56.38;94369.97;5117598;27;20316;-70
2023/07/03 06:29:20;;;;;;;12.70;11.23;;;;;;;27.18;57.74;94378.28;5114107;27;20259;-73
2023/07/03 06:31:48;;;;;;;11.63;10.40;;;;;;;27.42;56.48;94376.78;5097230;28;20202;-76
2023/07/03 06:34:16;;;;;;;13.43;10.43;;;;;;;27.29;56.83;94367.63;5107997;28;20209;-72
2023/07/03 06:36:42;;;;;;;14.82;10.70;;;;;;;27.56;56.72;94376.38;5106528;28;20273;-77
2023/07/03 06:39:10;;;;;;;14.25;10.13;;;;;;;26.67;57.98;94394.72;5111667;28;20611;-78
2023/07/03 06:41:37;;;;;;;13.00;10.35;;;;;;;27.61;56.59;94382.63;5088931;28;20291;-79
2023/07/03 06:44:05;;;;;;;12.85;10.10;;;;;;;27.02;57.20;94393.03;5088180;28;20287;-77
2023/07/03 06:46:31;;;;;;;14.55;11.10;;;;;;;27.41;57.22;94380.78;5107267;28;20206;-77
2023/07/03 06:49:00;;;;;;;13.00;10.50;;;;;;;27.57;56.46;94372.38;5119531;28;20670;-76
2023/07/03 06:51:26;;;;;;;12.05;9.38;;;;;;;27.94;56.38;94378.41;5093904;28;20210;-76
2023/07/03 06:53:53;;;;;;;12.68;10.93;;;;;;;27.57;58.02;94383.53;5088536;28;20206;-73
2023/07/03 06:56:21;;;;;;;12.85;10.27;;;;;;;27.10;59.06;94388.81;5106148;28;20222;-73
2023/07/03 06:58:49;;;;;;;14.80;10.40;;;;;;;27.48;57.74;94388.13;5108961;28;20621;-73
2023/07/03 07:01:17;;;;;;;12.73;11.23;;;;;;;27.16;59.59;94377.94;5090628;28;20290;-74
2023/07/03 07:03:44;;;;;;;12.35;10.05;;;;;;;27.93;56.56;94376.84;5091749;28;20497;-74
2023/07/03 07:06:14;;;;;;;13.02;10.43;;;;;;;27.55;57.69;94385.94;5110569;28;20213;-72
2023/07/03 07:08:41;;;;;;;12.85;11.25;;;;;;;28.16;56.33;94379.28;5112026;28;20649;-72
2023/07/03 07:11:10;;;;;;;14.63;10.02;;;;;;;30.14;52.49;94365.06;5112680;28;20240;-73
2023/07/03 07:13:38;;;;;;;15.05;11.02;;;;;;;27.73;55.72;94379.09;5112793;28;20312;-71
2023/07/03 07:16:05;;;;;;;15.65;11.27;;;;;;;27.25;58.00;94386.41;5118171;27;20243;-72
2023/07/03 07:18:32;;;;;;;12.05;10.75;;;;;;;28.52;55.18;94378.16;5107105;27;20202;-75
2023/07/03 07:21:01;;;;;;;13.07;10.00;;;;;;;27.64;57.15;94370.59;5098924;28;20255;-72
2023/07/03 07:23:29;;;;;;;12.82;10.18;;;;;;;27.58;57.64;94379.50;5112349;28;20660;-72
2023/07/03 07:25:56;;;;;;;11.82;9.15;;;;;;;28.32;55.58;94374.84;5112448;28;20255;-74
2023/07/03 07:28:23;;;;;;;11.63;9.70;;;;;;;28.65;54.24;94373.34;5112840;27;20229;-74
2023/07/03 07:30:50;;;;;;;11.63;9.25;;;;;;;29.42;53.80;94380.19;5125546;27;20613;-75
2023/07/03 07:33:17;;;;;;;11.30;10.05;;;;;;;28.49;54.55;94374.25;5098457;28;20661;-74
2023/07/03 07:35:44;;;;;;;14.57;10.27;;;;;;;28.23;55.27;94386.69;5099605;28;20612;-76
2023/07/03 07:38:11;;;;;;;12.95;9.32;;;;;;;27.76;55.41;94389.31;5125164;27;20655;-74
2023/07/03 07:40:39;;;;;;;10.90;9.38;;;;;;;28.11;54.14;94387.44;5092000;28;20692;-76
2023/07/03 07:43:07;;;;;;;10.98;9.35;;;;;;;27.46;56.89;94393.38;5091827;28;20570;-76
2023/07/03 07:45:34;;;;;;;13.30;9.98;;;;;;;26.94;58.96;94393.63;5103217;28;20198;-77
2023/07/03 07:48:01;;;;;;;12.60;9.88;;;;;;;27.76;56.61;94394.88;5112199;28;20229;-75
2023/07/03 07:50:29;;;;;;;14.90;10.07;;;;;;;28.68;54.00;94391.97;5121558;27;20197;-78
2023/07/03 07:52:59;;;;;;;9.98;8.50;;;;;;;29.24;52.30;94394.00;5102219;27;20206;-72
2023/07/03 07:55:26;;;;;;;13.50;9.63;;;;;;;27.49;57.45;94392.47;5111909;28;20205;-77
2023/07/03 07:57:54;;;;;;;10.60;9.27;;;;;;;27.75;55.88;94398.88;5111660;28;20266;-78
2023/07/03 08:00:21;;;;;;;14.02;10.43;;;;;;;28.23;54.76;94398.59;5101283;28;20484;-77
2023/07/03 08:02:48;;;;;;;11.13;9.68;;;;;;;29.58;51.55;94395.97;5091454;28;20247;-76
2023/07/03 08:05:15;;;;;;;12.15;8.65;;;;;;;29.69;50.22;94394.31;5091676;28;20206;-78
2023/07/03 08:07:41;;;;;;;10.40;8.18;;;;;;;29.40;50.30;94404.22;5108716;28;20768;-78
2023/07/03 08:10:09;;;;;;;10.70;8.30;;;;;;;28.97;50.37;94400.91;5111868;28;20202;-76
2023/07/03 08:12:35;;;;;;;9.70;8.02;;;;;;;29.17;53.00;94400.63;5111256;28;20688;-76
2023/07/03 08:15:05;;;;;;;9.77;7.78;;;;;;;28.37;51.97;94410.50;5111205;28;20714;-75
2023/07/03 08:17:32;;;;;;;10.40;8.27;;;;;;;28.74;53.88;94418.03;5116848;27;20201;-74
2023/07/03 08:19:59;;;;;;;8.93;7.90;;;;;;;27.82;54.15;94412.59;5108163;27;20202;-74
2023/07/03 08:22:25;;;;;;;9.73;8.10;;;;;;;28.35;53.80;94418.53;5097507;28;20216;-72
2023/07/03 08:24:52;;;;;;;12.32;8.15;;;;;;;29.48;50.54;94411.88;5111610;28;20217;-75
2023/07/03 08:27:19;;;;;;;9.45;8.35;;;;;;;28.67;54.49;94407.13;5111508;28;20202;-73
2023/07/03 08:29:47;;;;;;;9.57;8.25;;;;;;;28.55;52.48;94400.34;5099227;28;20299;-74
2023/07/03 08:32:16;;;;;;;9.15;7.85;;;;;;;28.99;51.14;94411.63;5109594;28;20224;-74
2023/07/03 08:34:43;;;;;;;9.38;7.25;;;;;;;29.63;50.39;94404.53;5109879;28;20524;-75
2023/07/03 08:37:09;;;;;;;9.70;7.43;;;;;;;29.92;50.32;94403.47;5110224;28;20558;-75
2023/07/03 08:39:39;;;;;;;9.18;8.23;;;;;;;29.14;51.50;94406.31;5110352;28;20201;-74
2023/07/03 08:42:13;;;;;;;10.48;9.32;;;;;;;28.95;50.35;94417.34;5110892;28;20472;-74
2023/07/03 08:44:40;;;;;;;11.98;8.10;;;;;;;28.14;51.48;94420.75;5111707;28;20619;-74
2023/07/03 08:47:09;;;;;;;10.57;7.43;;;;;;;27.80;52.44;94424.19;5111213;28;20206;-74
2023/07/03 08:49:39;;;;;;;9.35;7.70;;;;;;;28.72;50.94;94417.69;5111126;28;20794;-74
2023/07/03 08:52:07;;;;;;;11.77;8.10;;;;;;;28.88;51.76;94423.16;5111467;28;20618;-75
2023/07/03 08:54:36;;;;;;;10.75;7.70;;;;;;;27.96;53.07;94420.53;5110983;28;20559;-74
2023/07/03 08:57:05;;;;;;;12.60;6.97;;;;;;;27.49;53.02;94423.88;5110608;28;20917;-73
2023/07/03 08:59:32;;;;;;;8.63;7.00;;;;;;;27.51;51.86;94424.22;5121023;27;20205;-74
2023/07/03 09:02:03;;;;;;;10.20;7.50;;;;;;;28.90;50.39;94420.69;5110775;28;20197;-75
2023/07/03 09:04:47;;;;;;;10.50;7.20;;;;;;;28.56;49.62;94417.84;5111070;28;20201;-73
2023/07/03 09:07:19;;;;;;;7.70;6.90;;;;;;;28.50;49.88;94416.84;5110884;28;20213;-73
2023/07/03 09:09:53;;;;;;;8.38;7.03;;;;;;;29.75;48.94;94404.91;5110321;28;20255;-74
2023/07/03 09:12:26;;;;;;;9.73;7.50;;;;;;;29.63;47.55;94415.72;5110800;28;20228;-71
2023/07/03 09:14:57;;;;;;;9.52;7.43;;;;;;;29.98;45.63;94410.03;5110627;28;20590;-74
2023/07/03 09:17:26;;;;;;;7.90;6.63;;;;;;;31.35;44.43;94399.94;5110759;28;20246;-75
2023/07/03 09:19:57;;;;;;;8.57;6.85;;;;;;;31.52;44.39;94400.41;5111113;28;20251;-76
2023/07/03 09:22:30;;;;;;;8.55;7.15;;;;;;;31.01;43.66;94415.03;5110596;28;20258;-75
2023/07/03 09:25:01;;;;;;;9.73;7.22;;;;;;;29.59;48.27;94414.28;5109526;28;20206;-75
2023/07/03 09:27:28;;;;;;;10.30;7.97;;;;;;;28.34;51.11;94422.56;5104314;28;20538;-71
2023/07/03 09:30:00;;;;;;;11.10;7.82;;;;;;;27.51;54.47;94420.63;5103340;28;20206;-75
2023/07/03 09:32:28;;;;;;;9.20;8.20;;;;;;;27.49;55.03;94420.31;5117917;27;20201;-75
2023/07/03 09:35:06;;;;;;;9.77;8.00;;;;;;;26.92;52.61;94422.63;5103055;27;20206;-73
2023/07/03 09:37:36;;;;;;;12.73;8.80;;;;;;;27.47;51.48;94423.53;5090139;28;20205;-75
2023/07/03 09:40:08;;;;;;;11.00;7.70;;;;;;;27.38;53.71;94420.63;5103435;28;20213;-73
2023/07/03 09:42:36;;;;;;;10.38;7.78;;;;;;;27.40;51.58;94423.75;5100559;28;20205;-74
2023/07/03 09:45:03;;;;;;;11.45;8.30;;;;;;;27.46;53.21;94416.41;5109961;28;20564;-74
2023/07/03 09:47:30;;;;;;;9.40;7.43;;;;;;;27.62;52.33;94410.00;5122077;27;20205;-75
2023/07/03 09:50:06;;;;;;;9.90;7.80;;;;;;;28.06;51.88;94408.28;5093062;27;20241;-75
2023/07/03 09:52:33;;;;;;;9.65;7.70;;;;;;;28.35;49.85;94407.41;5102910;28;20602;-74
2023/07/03 09:55:03;;;;;;;8.98;7.53;;;;;;;29.23;47.97;94406.41;5116851;27;20281;-74
2023/07/03 09:57:30;;;;;;;10.35;7.65;;;;;;;29.25;47.93;94401.13;5103773;28;20201;-74
2023/07/03 10:00:09;;;;;;;8.52;7.10;;;;;;;29.79;47.65;94405.56;5102432;28;20268;-74
2023/07/03 10:02:35;;;;;;;9.75;7.55;;;;;;;28.68;48.51;94400.31;5089906;28;20350;-74
2023/07/03 10:05:04;;;;;;;9.43;7.70;;;;;;;29.29;48.53;94407.38;5089809;28;20242;-74
2023/07/03 10:07:39;;;;;;;8.45;7.00;;;;;;;29.12;47.12;94403.97;5089312;28;20279;-75
2023/07/03 10:10:10;;;;;;;12.00;7.35;;;;;;;29.21;47.63;94406.06;5089291;28;20676;-74
2023/07/03 10:12:43;;;;;;;10.45;7.03;;;;;;;29.50;49.13;94412.22;5107448;28;20332;-74
2023/07/03 10:15:14;;;;;;;9.25;6.93;;;;;;;29.59;46.85;94397.53;5110062;28;20212;-75
2023/07/03 10:17:47;;;;;;;9.00;7.07;;;;;;;30.21;43.40;94398.31;5109886;28;20197;-74
2023/07/03 10:20:20;;;;;;;8.02;6.57;;;;;;;30.05;45.56;94395.78;5109779;28;20206;-75
2023/07/03 10:22:49;;;;;;;7.53;6.70;;;;;;;30.08;45.33;94406.03;5109770;28;20202;-75
2023/07/03 10:25:20;;;;;;;8.52;7.15;;;;;;;30.49;44.53;94398.41;5109810;28;20610;-74
2023/07/03 10:27:49;;;;;;;9.40;7.30;;;;;;;30.69;42.91;94398.81;5118577;27;20197;-74
2023/07/03 10:30:18;;;;;;;7.40;6.63;;;;;;;31.24;42.79;94391.25;5096594;27;20210;-74
2023/07/03 10:32:50;;;;;;;9.25;6.53;;;;;;;31.68;42.82;94383.28;5089213;28;20199;-74
2023/07/03 10:35:25;;;;;;;9.45;7.15;;;;;;;31.79;42.64;94382.78;5089341;28;20346;-74
2023/07/03 10:37:59;;;;;;;8.70;6.65;;;;;;;30.47;43.46;94396.09;5088713;28;20201;-73
2023/07/03 10:40:33;;;;;;;10.55;6.63;;;;;;;29.96;44.39;94390.09;5089182;28;20208;-73
2023/07/03 10:43:03;;;;;;;7.13;6.18;;;;;;;30.98;41.22;94389.97;5088433;28;20237;-73
2023/07/03 10:45:33;;;;;;;9.45;6.57;;;;;;;31.17;41.97;94387.97;5099897;28;20713;-75
2023/07/03 10:48:05;;;;;;;9.07;6.65;;;;;;;31.23;42.70;94391.72;5111501;28;20209;-73
2023/07/03 10:50:40;;;;;;;9.60;6.78;;;;;;;31.07;42.36;94385.16;5110745;28;20203;-76
2023/07/03 10:53:13;;;;;;;7.85;6.60;;;;;;;29.65;46.29;94396.50;5089173;28;20197;-74
2023/07/03 10:55:46;;;;;;;10.48;7.55;;;;;;;28.56;48.37;94398.34;5089106;28;20289;-75
2023/07/03 10:58:21;;;;;;;8.35;6.80;;;;;;;28.42;49.02;94384.88;5108319;28;20726;-75
2023/07/03 11:00:55;;;;;;;11.02;7.57;;;;;;;28.73;48.48;94388.56;5109495;28;20261;-75
2023/07/03 11:03:29;;;;;;;10.38;7.00;;;;;;;28.64;47.73;94391.28;5113136;28;20745;-75
2023/07/03 11:06:02;;;;;;;24.88;13.63;;;;;;;28.85;48.46;94385.00;5105111;28;20197;-74
2023/07/03 11:08:39;;;;;;;11.85;7.47;;;;;;;28.87;46.82;94382.53;5109341;28;20244;-75
2023/07/03 11:11:18;;;;;;;12.55;6.70;;;;;;;29.09;48.82;94381.81;5109257;28;20208;-74
2023/07/03 11:13:51;;;;;;;8.50;6.95;;;;;;;29.09;46.51;94381.81;5109410;28;20229;-74
2023/07/03 11:16:19;;;;;;;10.57;6.80;;;;;;;30.08;45.61;94383.66;5109263;28;20313;-75
2023/07/03 11:19:07;;;;;;;9.77;6.93;;;;;;;30.71;43.82;94385.13;5108915;28;20293;-75
2023/07/03 11:21:42;;;;;;;9.82;7.40;;;;;;;31.05;42.90;94382.03;5109055;28;20725;-75
2023/07/03 11:24:17;;;;;;;8.80;6.80;;;;;;;30.45;44.03;94379.00;5109281;28;20270;-74
2023/07/03 11:26:51;;;;;;;9.00;6.10;;;;;;;29.41;46.26;94381.44;5108472;28;20254;-73
2023/07/03 11:29:18;;;;;;;7.35;6.00;;;;;;;27.93;51.28;94383.19;5109073;28;20212;-73